createdAt,value
2022-08-19T00:02:01.642Z,99.90
2022-08-19T00:04:35.858Z,99.90
2022-08-19T00:07:03.712Z,99.90
2022-08-19T00:09:30.716Z,99.90
2022-08-19T00:11:58.732Z,99.90
2022-08-19T00:14:27.851Z,99.90
2022-08-19T00:16:55.780Z,99.90
2022-08-19T00:19:23.441Z,99.90
2022-08-19T00:24:17.703Z,99.90
2022-08-19T00:26:46.438Z,99.90
2022-08-19T00:29:16.078Z,99.90
2022-08-19T00:31:44.146Z,99.90
2022-08-19T00:34:12.764Z,99.90
2022-08-19T00:36:40.293Z,99.90
2022-08-19T00:39:07.218Z,99.90
2022-08-19T00:41:34.441Z,99.90
2022-08-19T00:44:27.102Z,99.90
2022-08-19T00:46:58.038Z,99.90
2022-08-19T00:49:52.240Z,99.90
2022-08-19T00:52:34.401Z,99.90
2022-08-19T00:55:02.317Z,99.90
2022-08-19T00:57:45.501Z,99.90
2022-08-19T01:00:16.198Z,99.90
2022-08-19T01:02:44.270Z,99.90
2022-08-19T01:05:19.564Z,99.90
2022-08-19T01:07:46.814Z,99.90
2022-08-19T01:10:17.237Z,99.90
2022-08-19T01:12:44.324Z,99.90
2022-08-19T01:15:13.038Z,99.90
2022-08-19T01:17:42.046Z,99.90
2022-08-19T01:20:14.684Z,99.90
2022-08-19T01:22:47.119Z,99.90
2022-08-19T01:25:16.722Z,99.90
2022-08-19T01:27:48.387Z,99.90
2022-08-19T01:30:26.794Z,99.90
2022-08-19T01:32:55.063Z,99.90
2022-08-19T01:35:24.508Z,99.90
2022-08-19T01:38:08.500Z,99.90
2022-08-19T01:40:39.132Z,99.90
2022-08-19T01:43:06.676Z,99.90
2022-08-19T01:45:34.637Z,99.90
2022-08-19T01:48:02.709Z,99.90
2022-08-19T01:50:33.719Z,99.90
2022-08-19T01:53:06.353Z,99.90
2022-08-19T01:55:40.946Z,99.90
2022-08-19T01:58:13.229Z,99.90
2022-08-19T02:00:40.391Z,99.90
2022-08-19T02:03:07.512Z,99.90
2022-08-19T02:05:34.328Z,99.90
2022-08-19T02:10:28.155Z,99.90
2022-08-19T02:12:55.207Z,99.90
2022-08-19T02:15:23.389Z,99.90
2022-08-19T02:17:50.380Z,99.90
2022-08-19T02:20:17.151Z,99.90
2022-08-19T02:22:44.822Z,99.90
2022-08-19T02:25:14.195Z,99.90
2022-08-19T02:27:41.867Z,99.90
2022-08-19T02:30:14.209Z,99.90
2022-08-19T02:32:44.693Z,99.90
2022-08-19T02:35:13.468Z,99.90
2022-08-19T02:40:35.255Z,99.90
2022-08-19T02:43:04.130Z,99.90
2022-08-19T02:45:35.542Z,99.90
2022-08-19T02:50:55.723Z,99.90
2022-08-19T02:53:25.167Z,99.90
2022-08-19T02:58:20.468Z,99.90
2022-08-19T03:00:52.433Z,99.90
2022-08-19T03:03:20.033Z,99.90
2022-08-19T03:05:55.886Z,99.90
2022-08-19T03:08:23.082Z,99.90
2022-08-19T03:10:49.799Z,99.90
2022-08-19T03:13:18.409Z,99.90
2022-08-19T03:15:48.436Z,99.90
2022-08-19T03:18:16.090Z,99.90
2022-08-19T03:20:47.047Z,99.90
2022-08-19T03:23:14.915Z,99.90
2022-08-19T03:25:44.175Z,99.90
2022-08-19T03:28:12.873Z,99.90
2022-08-19T03:30:41.842Z,99.90
2022-08-19T03:33:17.954Z,99.90
2022-08-19T03:38:12.776Z,99.90
2022-08-19T03:40:39.487Z,99.90
2022-08-19T03:45:33.652Z,99.90
2022-08-19T03:48:00.379Z,99.90
2022-08-19T03:52:54.443Z,99.90
2022-08-19T03:57:49.278Z,99.90
2022-08-19T04:00:16.479Z,99.90
2022-08-19T04:02:58.547Z,99.90
2022-08-19T04:05:29.567Z,99.90
2022-08-19T04:07:59.690Z,99.90
2022-08-19T04:10:26.491Z,99.90
2022-08-19T04:12:53.333Z,99.90
2022-08-19T04:15:20.513Z,99.90
2022-08-19T04:20:14.340Z,99.90
2022-08-19T04:22:41.092Z,99.90
2022-08-19T04:25:08.075Z,99.90
2022-08-19T04:30:02.475Z,99.90
2022-08-19T04:32:29.211Z,99.90
2022-08-19T04:35:02.111Z,99.90
2022-08-19T04:37:44.530Z,99.90
2022-08-19T04:42:57.402Z,99.90
2022-08-19T04:45:24.206Z,99.90
2022-08-19T04:47:58.292Z,99.90
2022-08-19T04:50:27.433Z,99.90
2022-08-19T04:52:54.636Z,99.90
2022-08-19T04:55:21.556Z,99.90
2022-08-19T04:57:48.466Z,99.90
2022-08-19T05:00:15.257Z,99.90
2022-08-19T05:02:42.245Z,99.90
2022-08-19T05:05:09.519Z,99.90
2022-08-19T05:07:37.327Z,99.90
2022-08-19T05:10:06.389Z,99.90
2022-08-19T05:12:33.131Z,99.90
2022-08-19T05:15:00.426Z,99.90
2022-08-19T05:17:31.023Z,99.90
2022-08-19T05:22:47.070Z,99.90
2022-08-19T05:25:20.016Z,99.90
2022-08-19T05:27:47.073Z,99.90
2022-08-19T05:30:14.088Z,99.90
2022-08-19T05:32:41.192Z,99.90
2022-08-19T05:35:08.638Z,99.90
2022-08-19T05:37:35.379Z,99.90
2022-08-19T05:42:31.501Z,99.90
2022-08-19T05:44:58.241Z,99.90
2022-08-19T05:47:24.972Z,99.90
2022-08-19T05:52:25.833Z,99.90
2022-08-19T05:54:56.602Z,99.90
2022-08-19T05:57:24.957Z,99.90
2022-08-19T05:59:53.252Z,99.90
2022-08-19T06:02:29.468Z,99.90
2022-08-19T06:04:56.294Z,99.90
2022-08-19T06:10:00.468Z,99.90
2022-08-19T06:12:29.884Z,99.90
2022-08-19T06:15:01.229Z,99.90
2022-08-19T06:19:59.611Z,99.90
2022-08-19T06:24:54.858Z,99.90
2022-08-19T06:27:22.612Z,99.90
2022-08-19T06:29:50.051Z,99.90
2022-08-19T06:32:19.583Z,99.90
2022-08-19T06:34:46.620Z,99.90
2022-08-19T06:37:13.968Z,99.90
2022-08-19T06:39:42.601Z,99.90
2022-08-19T06:42:12.518Z,99.90
2022-08-19T06:44:43.177Z,99.90
2022-08-19T06:47:14.243Z,99.90
2022-08-19T06:49:41.196Z,99.90
2022-08-19T06:52:08.422Z,99.90
2022-08-19T06:57:24.090Z,99.90
2022-08-19T06:59:50.897Z,99.90
2022-08-19T07:04:44.885Z,99.90
2022-08-19T07:07:19.994Z,99.90
2022-08-19T07:09:57.179Z,99.90
2022-08-19T07:12:35.634Z,99.90
2022-08-19T07:15:06.357Z,99.90
2022-08-19T07:17:34.414Z,99.90
2022-08-19T07:22:35.232Z,99.90
2022-08-19T07:25:04.766Z,99.90
2022-08-19T07:27:33.691Z,99.90
2022-08-19T07:30:01.332Z,99.90
2022-08-19T07:32:28.223Z,99.90
2022-08-19T07:34:56.647Z,99.90
2022-08-19T07:37:32.046Z,99.90
2022-08-19T07:42:27.774Z,99.90
2022-08-19T07:44:54.600Z,99.90
2022-08-19T07:47:48.969Z,99.90
2022-08-19T07:50:12.275Z,99.90
2022-08-19T07:52:45.715Z,99.90
2022-08-19T07:55:42.056Z,99.90
2022-08-19T07:58:05.800Z,99.90
2022-08-19T08:00:32.712Z,99.90
2022-08-19T08:02:59.534Z,99.90
2022-08-19T08:05:44.867Z,99.90
2022-08-19T08:08:31.292Z,99.90
2022-08-19T08:10:59.469Z,99.90
2022-08-19T08:13:27.877Z,99.90
2022-08-19T08:15:54.809Z,99.90
2022-08-19T08:18:22.782Z,99.90
2022-08-19T08:20:55.494Z,99.90
2022-08-19T08:23:29.624Z,99.90
2022-08-19T08:25:58.705Z,99.90
2022-08-19T08:28:29.738Z,99.90
2022-08-19T08:30:58.191Z,99.90
2022-08-19T08:33:33.511Z,99.90
2022-08-19T08:36:12.337Z,99.90
2022-08-19T08:38:40.633Z,99.90
2022-08-19T08:41:20.346Z,99.90
2022-08-19T08:43:50.154Z,99.90
2022-08-19T08:46:31.688Z,99.90
2022-08-19T08:49:12.861Z,99.90
2022-08-19T08:51:48.333Z,99.90
2022-08-19T08:54:31.510Z,99.90
2022-08-19T08:57:00.897Z,99.90
2022-08-19T08:59:38.269Z,99.90
2022-08-19T09:02:05.601Z,99.90
2022-08-19T09:04:32.389Z,99.90
2022-08-19T09:07:18.569Z,99.90
2022-08-19T09:10:17.886Z,99.90
2022-08-19T09:12:59.903Z,99.90
2022-08-19T09:15:36.823Z,99.90
2022-08-19T09:18:07.200Z,99.90
2022-08-19T09:20:34.408Z,99.90
2022-08-19T09:23:01.339Z,99.90
2022-08-19T09:25:29.582Z,99.90
2022-08-19T09:28:01.160Z,99.90
2022-08-19T09:30:33.978Z,99.90
2022-08-19T09:33:01.884Z,99.90
2022-08-19T09:35:30.588Z,99.90
2022-08-19T09:37:59.477Z,99.90
2022-08-19T09:40:30.270Z,99.90
2022-08-19T09:43:01.081Z,99.90
2022-08-19T09:45:28.001Z,99.90
2022-08-19T09:47:55.502Z,99.90
2022-08-19T09:50:24.019Z,99.90
2022-08-19T09:52:54.193Z,99.90
2022-08-19T09:55:25.029Z,99.90
2022-08-19T09:57:59.640Z,99.90
2022-08-19T10:00:27.696Z,99.90
2022-08-19T10:02:54.454Z,99.90
2022-08-19T10:05:42.422Z,99.90
2022-08-19T10:08:13.471Z,99.90
2022-08-19T10:10:46.348Z,99.90
2022-08-19T10:13:16.368Z,99.90
2022-08-19T10:15:47.561Z,99.90
2022-08-19T10:18:19.117Z,99.90
2022-08-19T10:20:51.565Z,99.90
2022-08-19T10:23:20.793Z,99.90
2022-08-19T10:25:48.863Z,99.90
2022-08-19T10:28:16.076Z,99.90
2022-08-19T10:30:46.371Z,99.90
2022-08-19T10:33:13.667Z,99.90
2022-08-19T10:35:42.652Z,99.90
2022-08-19T10:38:31.717Z,99.90
2022-08-19T10:41:07.660Z,99.90
2022-08-19T10:43:37.768Z,99.90
2022-08-19T10:46:06.478Z,99.90
2022-08-19T10:48:41.459Z,99.90
2022-08-19T10:51:27.304Z,99.90
2022-08-19T10:53:54.998Z,99.90
2022-08-19T10:56:40.187Z,99.90
2022-08-19T10:59:07.323Z,99.90
2022-08-19T11:01:35.664Z,99.90
2022-08-19T11:04:04.291Z,99.90
2022-08-19T11:06:33.179Z,99.90
2022-08-19T11:09:00.933Z,99.90
2022-08-19T11:11:29.336Z,99.90
2022-08-19T11:13:56.095Z,99.90
2022-08-19T11:16:27.055Z,99.90
2022-08-19T11:18:59.232Z,99.90
2022-08-19T11:21:34.608Z,99.90
2022-08-19T11:24:04.986Z,99.90
2022-08-19T11:26:32.373Z,99.90
2022-08-19T11:29:00.799Z,99.90
2022-08-19T11:31:34.282Z,99.90
2022-08-19T11:34:04.319Z,99.90
2022-08-19T11:36:33.568Z,99.90
2022-08-19T11:39:01.572Z,99.90
2022-08-19T11:41:28.654Z,99.90
2022-08-19T11:43:56.328Z,99.90
2022-08-19T11:46:25.135Z,99.90
2022-08-19T11:48:51.923Z,99.90
2022-08-19T11:51:22.619Z,99.90
2022-08-19T11:53:51.348Z,99.90
2022-08-19T11:56:19.738Z,99.90
2022-08-19T11:58:46.715Z,99.90
2022-08-19T12:01:18.747Z,99.90
2022-08-19T12:03:47.734Z,99.90
2022-08-19T12:06:20.108Z,99.90
2022-08-19T12:08:48.453Z,99.90
2022-08-19T12:11:15.973Z,99.90
2022-08-19T12:13:45.898Z,99.90
2022-08-19T12:16:16.793Z,99.90
2022-08-19T12:18:46.200Z,99.90
2022-08-19T12:21:19.242Z,99.90
2022-08-19T12:23:46.365Z,99.90
2022-08-19T12:26:13.095Z,99.90
2022-08-19T12:28:39.971Z,99.90
2022-08-19T12:31:07.170Z,99.90
2022-08-19T12:33:34.253Z,99.90
2022-08-19T12:36:04.685Z,99.90
2022-08-19T12:38:31.409Z,99.90
2022-08-19T12:41:00.319Z,99.90
2022-08-19T12:43:27.953Z,99.90
2022-08-19T12:45:54.663Z,99.80
2022-08-19T12:48:34.899Z,98.70
2022-08-19T12:51:07.665Z,98.00
2022-08-19T12:53:34.614Z,97.00
2022-08-19T12:56:08.141Z,96.40
2022-08-19T12:58:40.135Z,95.70
2022-08-19T13:01:15.074Z,94.60
2022-08-19T13:03:46.756Z,93.40
2022-08-19T13:06:14.141Z,94.50
2022-08-19T13:08:46.595Z,93.40
2022-08-19T13:11:18.303Z,93.60
2022-08-19T13:13:47.297Z,91.20
2022-08-19T13:16:15.030Z,90.20
2022-08-19T13:18:44.960Z,87.20
2022-08-19T13:21:14.660Z,85.30
2022-08-19T13:23:42.635Z,85.90
2022-08-19T13:26:10.970Z,84.90
2022-08-19T13:28:56.454Z,87.40
2022-08-19T13:31:43.791Z,85.80
2022-08-19T13:34:10.954Z,84.70
2022-08-19T13:36:38.894Z,85.20
2022-08-19T13:39:08.241Z,79.80
2022-08-19T13:41:35.897Z,75.60
2022-08-19T13:44:03.063Z,76.20
2022-08-19T13:46:30.948Z,80.00
2022-08-19T13:48:58.423Z,82.70
2022-08-19T13:51:25.173Z,85.80
2022-08-19T13:53:51.974Z,89.30
2022-08-19T13:56:24.180Z,91.20
2022-08-19T13:58:54.288Z,91.70
2022-08-19T14:01:25.133Z,92.40
2022-08-19T14:03:52.381Z,90.90
2022-08-19T14:06:19.791Z,89.60
2022-08-19T14:08:48.244Z,86.10
2022-08-19T14:11:15.882Z,83.80
2022-08-19T14:13:42.659Z,83.40
2022-08-19T14:16:11.331Z,80.80
2022-08-19T14:18:39.428Z,80.70
2022-08-19T14:21:07.111Z,81.60
2022-08-19T14:23:34.645Z,81.70
2022-08-19T14:26:11.196Z,80.30
2022-08-19T14:28:38.424Z,79.70
2022-08-19T14:31:05.491Z,78.70
2022-08-19T14:33:33.547Z,78.70
2022-08-19T14:36:01.436Z,78.70
2022-08-19T14:38:31.294Z,80.90
2022-08-19T14:41:10.845Z,82.70
2022-08-19T14:43:38.525Z,84.50
2022-08-19T14:46:05.593Z,83.70
2022-08-19T14:48:32.305Z,83.00
2022-08-19T14:50:59.019Z,82.70
2022-08-19T14:53:26.580Z,82.10
2022-08-19T14:55:53.472Z,81.90
2022-08-19T14:58:29.843Z,81.00
2022-08-19T15:00:59.842Z,80.60
2022-08-19T15:03:27.041Z,81.80
2022-08-19T15:05:54.037Z,79.80
2022-08-19T15:08:22.591Z,78.70
2022-08-19T15:10:49.731Z,79.00
2022-08-19T15:13:16.774Z,78.60
2022-08-19T15:15:43.554Z,78.60
2022-08-19T15:18:12.056Z,79.00
2022-08-19T15:20:39.209Z,79.60
2022-08-19T15:23:09.228Z,79.60
2022-08-19T15:25:36.414Z,79.80
2022-08-19T15:28:04.253Z,79.90
2022-08-19T15:30:31.246Z,80.50
2022-08-19T15:32:59.032Z,80.70
2022-08-19T15:35:26.160Z,81.20
2022-08-19T15:37:54.512Z,81.20
2022-08-19T15:40:22.564Z,81.00
2022-08-19T15:42:49.994Z,80.60
2022-08-19T15:45:18.951Z,81.40
2022-08-19T15:47:46.245Z,81.80
2022-08-19T15:50:17.139Z,83.00
2022-08-19T15:52:53.635Z,85.70
2022-08-19T15:55:33.171Z,84.10
2022-08-19T15:58:28.458Z,84.50
2022-08-19T16:01:20.874Z,84.10
2022-08-19T16:04:11.306Z,78.00
2022-08-19T16:06:48.721Z,76.30
2022-08-19T16:09:16.966Z,77.70
2022-08-19T16:11:45.800Z,76.00
2022-08-19T16:14:15.236Z,77.70
2022-08-19T16:16:42.652Z,76.60
2022-08-19T16:19:11.816Z,75.70
2022-08-19T16:21:40.489Z,77.50
2022-08-19T16:24:12.957Z,80.50
2022-08-19T16:26:40.858Z,78.70
2022-08-19T16:29:13.058Z,79.50
2022-08-19T16:31:43.337Z,79.80
2022-08-19T16:34:10.939Z,81.30
2022-08-19T16:36:40.670Z,81.00
2022-08-19T16:39:17.729Z,81.00
2022-08-19T16:41:46.080Z,81.50
2022-08-19T16:44:15.257Z,82.80
2022-08-19T16:46:42.475Z,82.40
2022-08-19T16:49:10.540Z,82.50
2022-08-19T16:51:38.828Z,83.30
2022-08-19T16:54:06.323Z,82.90
2022-08-19T16:56:33.248Z,83.00
2022-08-19T16:58:59.943Z,84.20
2022-08-19T17:01:28.552Z,86.00
2022-08-19T17:03:55.820Z,87.30
2022-08-19T17:06:29.661Z,88.40
2022-08-19T17:09:00.461Z,90.30
2022-08-19T17:11:29.993Z,91.40
2022-08-19T17:13:59.015Z,92.40
2022-08-19T17:16:28.434Z,93.40
2022-08-19T17:18:57.304Z,94.10
2022-08-19T17:21:31.871Z,94.60
2022-08-19T17:24:00.705Z,95.20
2022-08-19T17:26:28.596Z,95.80
2022-08-19T17:28:57.274Z,96.20
2022-08-19T17:31:26.599Z,96.60
2022-08-19T17:33:55.121Z,96.90
2022-08-19T17:36:23.625Z,97.30
2022-08-19T17:38:51.484Z,97.50
2022-08-19T17:41:18.879Z,97.50
2022-08-19T17:43:45.568Z,97.70
2022-08-19T17:46:20.421Z,97.90
2022-08-19T17:48:52.932Z,98.00
2022-08-19T17:51:35.864Z,98.00
2022-08-19T17:54:05.532Z,98.50
2022-08-19T17:56:32.602Z,98.60
2022-08-19T17:59:01.694Z,98.70
2022-08-19T18:01:52.008Z,99.00
2022-08-19T18:04:18.713Z,99.40
2022-08-19T18:06:52.771Z,99.50
2022-08-19T18:09:27.535Z,99.70
2022-08-19T18:11:57.138Z,99.90
2022-08-19T18:14:32.867Z,99.90
2022-08-19T18:17:09.432Z,99.90
2022-08-19T18:19:41.075Z,99.90
2022-08-19T18:22:08.520Z,99.90
2022-08-19T18:24:38.675Z,99.90
2022-08-19T18:27:06.896Z,99.90
2022-08-19T18:32:00.838Z,99.90
2022-08-19T18:34:29.485Z,99.90
2022-08-19T18:36:56.229Z,99.90
2022-08-19T18:39:44.251Z,99.90
2022-08-19T18:42:34.971Z,99.90
2022-08-19T18:45:20.532Z,99.90
2022-08-19T18:50:41.553Z,99.90
2022-08-19T18:53:08.682Z,99.90
2022-08-19T18:55:35.406Z,99.90
2022-08-19T19:00:30.760Z,99.90
2022-08-19T19:02:57.812Z,99.90
2022-08-19T19:05:25.672Z,99.90
2022-08-19T19:07:54.270Z,99.90
2022-08-19T19:10:21.108Z,99.90
2022-08-19T19:12:49.198Z,99.90
2022-08-19T19:15:15.911Z,99.90
2022-08-19T19:17:42.568Z,99.90
2022-08-19T19:20:09.883Z,99.90
2022-08-19T19:22:36.659Z,99.90
2022-08-19T19:25:04.881Z,99.90
2022-08-19T19:27:31.597Z,99.90
2022-08-19T19:29:58.384Z,99.90
2022-08-19T19:32:36.950Z,99.90
2022-08-19T19:35:06.876Z,99.90
2022-08-19T19:37:33.692Z,99.90
2022-08-19T19:40:00.475Z,99.90
2022-08-19T19:42:27.174Z,99.90
2022-08-19T19:44:55.734Z,99.90
2022-08-19T19:47:24.600Z,99.90
2022-08-19T19:50:13.255Z,99.90
2022-08-19T19:52:40.662Z,99.90
2022-08-19T19:55:09.341Z,99.90
2022-08-19T19:57:36.238Z,99.90
2022-08-19T20:00:03.964Z,99.90
2022-08-19T20:02:30.713Z,99.90
2022-08-19T20:04:58.793Z,99.90
2022-08-19T20:07:45.559Z,99.90
2022-08-19T20:10:13.366Z,99.90
2022-08-19T20:12:40.165Z,99.90
2022-08-19T20:15:08.439Z,99.90
2022-08-19T20:17:42.488Z,99.90
2022-08-19T20:20:11.131Z,99.90
2022-08-19T20:22:43.012Z,99.90
2022-08-19T20:25:11.489Z,99.90
2022-08-19T20:27:40.073Z,99.90
2022-08-19T20:30:13.709Z,99.90
2022-08-19T20:32:46.746Z,99.90
2022-08-19T20:35:15.336Z,99.90
2022-08-19T20:37:42.336Z,99.90
2022-08-19T20:40:10.946Z,99.90
2022-08-19T20:42:40.533Z,99.90
2022-08-19T20:45:28.039Z,99.90
2022-08-19T20:48:02.543Z,99.90
2022-08-19T20:50:30.780Z,99.90
2022-08-19T20:52:58.369Z,99.90
2022-08-19T20:55:26.584Z,99.90
2022-08-19T20:57:53.717Z,99.90
2022-08-19T21:00:20.780Z,99.90
2022-08-19T21:02:47.485Z,99.90
2022-08-19T21:05:15.067Z,99.90
2022-08-19T21:07:42.025Z,99.90
2022-08-19T21:10:08.883Z,99.90
2022-08-19T21:12:35.727Z,99.90
2022-08-19T21:15:02.546Z,99.90
2022-08-19T21:17:29.302Z,99.90
2022-08-19T21:19:56.029Z,99.90
2022-08-19T21:22:22.715Z,99.90
2022-08-19T21:24:49.532Z,99.90
2022-08-19T21:27:16.217Z,99.90
2022-08-19T21:29:43.142Z,99.90
2022-08-19T21:32:14.156Z,99.90
2022-08-19T21:34:43.949Z,99.90
2022-08-19T21:37:25.129Z,99.90
2022-08-19T21:39:53.831Z,99.90
2022-08-19T21:42:21.188Z,99.90
2022-08-19T21:44:48.098Z,99.90
2022-08-19T21:47:15.114Z,99.90
2022-08-19T21:49:41.944Z,99.90
2022-08-19T21:52:09.195Z,99.90
2022-08-19T21:54:38.073Z,99.90
2022-08-19T21:57:10.082Z,99.90
2022-08-19T21:59:36.989Z,99.90
2022-08-19T22:02:18.987Z,99.90
2022-08-19T22:04:47.396Z,99.90
2022-08-19T22:07:14.652Z,99.90
2022-08-19T22:09:43.352Z,99.90
2022-08-19T22:12:20.943Z,99.90
2022-08-19T22:14:47.628Z,99.90
2022-08-19T22:17:14.661Z,99.90
2022-08-19T22:19:41.545Z,99.90
2022-08-19T22:22:08.371Z,99.90
2022-08-19T22:24:35.094Z,99.90
2022-08-19T22:27:04.159Z,99.90
2022-08-19T22:29:33.817Z,99.90
2022-08-19T22:32:01.577Z,99.90
2022-08-19T22:34:48.272Z,99.90
2022-08-19T22:37:14.950Z,99.90
2022-08-19T22:39:41.948Z,99.90
2022-08-19T22:42:09.180Z,99.90
2022-08-19T22:44:35.922Z,99.90
2022-08-19T22:47:02.729Z,99.90
2022-08-19T22:49:29.438Z,99.90
2022-08-19T22:52:14.796Z,99.90
2022-08-19T22:54:41.485Z,99.90
2022-08-19T22:57:08.196Z,99.90
2022-08-19T22:59:34.888Z,99.90
2022-08-19T23:02:01.609Z,99.90
2022-08-19T23:04:28.365Z,99.90
2022-08-19T23:06:55.107Z,99.90
2022-08-19T23:09:23.422Z,99.90
2022-08-19T23:11:51.207Z,99.90
2022-08-19T23:14:18.472Z,99.90
2022-08-19T23:16:50.828Z,99.90
2022-08-19T23:19:19.143Z,99.90
2022-08-19T23:21:45.919Z,99.90
2022-08-19T23:24:12.736Z,99.90
2022-08-19T23:26:59.843Z,99.90
2022-08-19T23:29:45.487Z,99.90
2022-08-19T23:32:14.144Z,99.90
2022-08-19T23:34:42.814Z,99.90
2022-08-19T23:37:09.568Z,99.90
2022-08-19T23:39:36.386Z,99.90
2022-08-19T23:42:03.750Z,99.90
2022-08-19T23:44:32.084Z,99.90
2022-08-19T23:47:00.383Z,99.90
2022-08-19T23:49:33.383Z,99.90
2022-08-19T23:52:00.068Z,99.90
2022-08-19T23:54:34.423Z,99.90
2022-08-19T23:57:13.806Z,99.90
2022-08-19T23:59:42.494Z,99.90
